Time;durP1;ratioP1;P1;durP2;ratioP2;P2;SDS_P1;SDS_P2;PMS_P1;PMS_P2;Temp;Humidity;BMP_temperature;BMP_pressure;BME280_temperature;BME280_humidity;BME280_pressure;Samples;Min_cycle;Max_cycle;Signal;HPM_P1;HPM_P2
2021/06/26 00:02:12;;;;;;;10.27;9.27;;;;;;;19.65;46.36;101508.38;5060101;28;20173;-63
2021/06/26 00:04:38;;;;;;;8.70;7.43;;;;;;;19.55;46.78;101506.75;5060598;28;20206;-62
2021/06/26 00:07:03;;;;;;;8.37;7.53;;;;;;;19.62;46.77;101515.47;5059818;28;20193;-65
2021/06/26 00:09:29;;;;;;;9.57;8.67;;;;;;;19.32;47.64;101521.22;5059097;28;20814;-64
2021/06/26 00:11:54;;;;;;;9.70;8.90;;;;;;;19.33;47.12;101516.81;5060240;28;20608;-64
2021/06/26 00:14:19;;;;;;;8.53;7.83;;;;;;;19.55;47.04;101517.34;5060063;28;20267;-64
2021/06/26 00:16:45;;;;;;;9.63;8.73;;;;;;;19.39;47.60;101513.19;5059702;28;20181;-65
2021/06/26 00:19:10;;;;;;;9.00;8.20;;;;;;;19.68;46.38;101516.25;5060479;28;20165;-65
2021/06/26 00:21:35;;;;;;;9.23;8.20;;;;;;;19.47;47.34;101516.59;5059787;28;20173;-65
2021/06/26 00:24:01;;;;;;;9.17;8.37;;;;;;;19.39;47.85;101514.09;5059469;28;20225;-65
2021/06/26 00:26:26;;;;;;;9.00;8.23;;;;;;;19.34;47.96;101515.91;5060179;28;20300;-65
2021/06/26 00:28:52;;;;;;;8.10;7.40;;;;;;;19.58;47.35;101516.44;5059723;28;20177;-64
2021/06/26 00:31:18;;;;;;;8.33;7.63;;;;;;;19.36;47.23;101508.81;5059616;28;20559;-65
2021/06/26 00:33:44;;;;;;;9.53;8.53;;;;;;;19.15;47.87;101521.44;5059874;28;20613;-66
2021/06/26 00:36:10;;;;;;;11.33;10.23;;;;;;;19.07;47.95;101520.69;5059605;28;20405;-65
2021/06/26 00:38:36;;;;;;;9.83;8.93;;;;;;;19.05;48.25;101518.94;5059493;28;20201;-65
2021/06/26 00:41:03;;;;;;;10.20;9.23;;;;;;;18.94;48.36;101522.63;5059806;28;20394;-65
2021/06/26 00:43:28;;;;;;;10.90;9.97;;;;;;;18.90;48.54;101518.25;5059489;28;20593;-65
2021/06/26 00:45:59;;;;;;;8.80;8.10;;;;;;;19.10;48.56;101520.63;5059469;28;20473;-64
2021/06/26 00:48:24;;;;;;;9.07;8.17;;;;;;;18.98;48.92;101521.69;5059862;28;20212;-64
2021/06/26 00:50:49;;;;;;;9.57;8.47;;;;;;;18.91;49.39;101524.41;5057359;28;20466;-65
2021/06/26 00:53:15;;;;;;;9.77;8.87;;;;;;;19.16;48.94;101519.69;5047727;28;20207;-63
2021/06/26 00:55:40;;;;;;;10.90;9.80;;;;;;;18.75;49.79;101518.41;5059523;28;20195;-63
2021/06/26 00:58:06;;;;;;;9.70;8.90;;;;;;;19.05;49.40;101518.94;5043072;28;20182;-63
2021/06/26 01:00:32;;;;;;;8.67;7.97;;;;;;;18.97;49.19;101519.03;5038536;28;20735;-65
2021/06/26 01:02:58;;;;;;;10.23;9.27;;;;;;;19.06;49.42;101518.94;5039202;28;20167;-65
2021/06/26 01:05:24;;;;;;;9.63;8.73;;;;;;;18.96;49.58;101515.53;5054251;28;20769;-65
2021/06/26 01:07:49;;;;;;;9.43;8.30;;;;;;;19.01;49.44;101507.53;5058855;28;20416;-64
2021/06/26 01:10:15;;;;;;;11.63;10.53;;;;;;;18.72;50.34;101502.59;5044181;28;20174;-65
2021/06/26 01:12:41;;;;;;;8.87;8.10;;;;;;;18.79;50.57;101504.28;5038768;28;20217;-65
2021/06/26 01:15:08;;;;;;;9.37;8.57;;;;;;;18.97;49.88;101498.78;5038781;28;20231;-65
2021/06/26 01:17:33;;;;;;;9.30;8.50;;;;;;;18.87;50.51;101498.91;5056844;28;20173;-65
2021/06/26 01:20:00;;;;;;;9.30;8.50;;;;;;;18.79;50.83;101505.13;5057980;28;20674;-66
2021/06/26 01:22:29;;;;;;;10.07;9.20;;;;;;;18.85;50.57;101501.56;5058663;28;20477;-66
2021/06/26 01:24:55;;;;;;;9.70;8.90;;;;;;;18.72;50.87;101506.13;5058763;28;20437;-66
2021/06/26 01:27:21;;;;;;;8.97;8.20;;;;;;;18.31;51.30;101510.09;5058831;28;20394;-67
2021/06/26 01:29:52;;;;;;;11.87;10.87;;;;;;;18.22;52.00;101515.47;5059007;28;20169;-66
2021/06/26 01:32:18;;;;;;;14.10;12.80;;;;;;;18.31;52.09;101510.09;5058469;28;20436;-66
2021/06/26 01:34:44;;;;;;;15.27;13.80;;;;;;;18.34;52.00;101510.06;5058467;28;20424;-67
2021/06/26 01:37:10;;;;;;;12.53;10.53;;;;;;;18.57;51.69;101503.66;5058784;28;20499;-65
2021/06/26 01:39:36;;;;;;;10.23;9.23;;;;;;;18.49;52.19;101503.75;5058558;28;20298;-63
2021/06/26 01:42:01;;;;;;;10.47;9.47;;;;;;;18.68;51.93;101504.41;5058296;28;20915;-62
2021/06/26 01:44:26;;;;;;;10.20;9.20;;;;;;;18.68;52.19;101507.03;5058928;28;20177;-62
2021/06/26 01:46:52;;;;;;;9.93;9.13;;;;;;;18.73;51.64;101514.94;5058385;28;20206;-62
2021/06/26 01:49:18;;;;;;;10.53;9.60;;;;;;;18.42;52.34;101513.50;5058365;28;20562;-62
2021/06/26 01:51:43;;;;;;;9.87;9.03;;;;;;;18.52;52.35;101516.91;5058712;28;20157;-62
2021/06/26 01:54:10;;;;;;;9.87;9.07;;;;;;;18.46;52.78;101509.94;5058167;28;20397;-62
2021/06/26 01:56:38;;;;;;;10.03;9.13;;;;;;;18.52;52.33;101515.16;5058244;28;20161;-62
2021/06/26 01:59:04;;;;;;;9.93;9.20;;;;;;;18.60;52.16;101511.53;5057817;28;20435;-64
2021/06/26 02:01:29;;;;;;;10.70;9.80;;;;;;;18.39;52.59;101508.25;5057396;28;20390;-63
2021/06/26 02:03:54;;;;;;;10.07;9.27;;;;;;;18.32;53.54;101511.81;5057751;28;20181;-63
2021/06/26 02:06:20;;;;;;;11.23;10.20;;;;;;;18.73;52.65;101514.94;5058626;28;20541;-64
2021/06/26 02:08:45;;;;;;;11.90;10.80;;;;;;;18.40;53.52;101511.75;5058016;28;20223;-65
2021/06/26 02:11:11;;;;;;;10.63;9.73;;;;;;;18.45;53.07;101507.31;5058052;28;20169;-66
2021/06/26 02:13:36;;;;;;;11.30;10.40;;;;;;;18.54;53.03;101508.97;5058224;28;20197;-64
2021/06/26 02:16:01;;;;;;;10.60;9.60;;;;;;;18.75;52.64;101500.78;5057714;28;20185;-65
2021/06/26 02:18:27;;;;;;;11.37;10.30;;;;;;;18.65;52.59;101507.94;5057678;28;20170;-65
2021/06/26 02:20:52;;;;;;;12.77;11.47;;;;;;;18.48;52.97;101508.16;5058395;28;20583;-65
2021/06/26 02:23:18;;;;;;;11.13;10.20;;;;;;;18.50;53.38;101505.50;5057383;28;20182;-66
2021/06/26 02:25:43;;;;;;;12.20;11.00;;;;;;;18.45;53.71;101516.09;5057728;28;20202;-65
2021/06/26 02:28:08;;;;;;;11.57;10.63;;;;;;;18.70;53.14;101513.19;5058309;28;20173;-64
2021/06/26 02:30:34;;;;;;;10.97;9.93;;;;;;;18.74;52.96;101509.63;5056990;28;20166;-64
2021/06/26 02:32:59;;;;;;;10.80;9.77;;;;;;;18.76;52.98;101513.09;5057110;28;20208;-65
2021/06/26 02:35:24;;;;;;;12.67;11.63;;;;;;;18.68;52.88;101514.97;5058410;28;20166;-65
2021/06/26 02:37:50;;;;;;;10.33;9.43;;;;;;;19.08;52.34;101513.63;5057686;28;20645;-66
2021/06/26 02:40:15;;;;;;;10.73;9.73;;;;;;;19.06;52.42;101508.34;5057604;28;20257;-66
2021/06/26 02:42:41;;;;;;;10.07;9.27;;;;;;;19.05;52.96;101513.66;5058017;28;20590;-66
2021/06/26 02:45:07;;;;;;;9.83;9.13;;;;;;;19.15;52.78;101518.81;5057401;28;20173;-66
2021/06/26 02:47:33;;;;;;;10.47;9.63;;;;;;;18.97;53.18;101517.28;5057399;28;20174;-65
2021/06/26 02:49:58;;;;;;;10.70;9.67;;;;;;;19.17;52.98;101509.09;5057744;28;20470;-65
2021/06/26 02:52:23;;;;;;;10.97;10.07;;;;;;;19.18;52.58;101508.19;5057305;28;20170;-65
2021/06/26 02:54:49;;;;;;;10.37;9.50;;;;;;;19.18;52.50;101510.81;5057463;28;20177;-65
2021/06/26 02:57:15;;;;;;;10.50;9.70;;;;;;;19.09;52.88;101516.25;5057926;28;20170;-65
2021/06/26 02:59:40;;;;;;;9.80;9.00;;;;;;;19.08;52.87;101516.25;5057515;28;20426;-65
2021/06/26 03:02:06;;;;;;;9.97;9.17;;;;;;;19.22;52.24;101514.31;5057293;28;20176;-65
2021/06/26 03:04:31;;;;;;;10.70;9.80;;;;;;;19.18;52.43;101513.47;5057963;28;20158;-65
2021/06/26 03:06:56;;;;;;;10.33;9.50;;;;;;;19.28;52.28;101521.28;5057375;28;20535;-65
2021/06/26 03:09:21;;;;;;;10.30;9.40;;;;;;;19.45;52.58;101523.69;5057342;28;20174;-65
2021/06/26 03:11:47;;;;;;;12.10;10.27;;;;;;;19.21;52.08;101519.63;5057777;28;20215;-65
2021/06/26 03:14:12;;;;;;;14.20;10.07;;;;;;;19.30;52.35;101516.84;5057339;28;20166;-65
2021/06/26 03:16:37;;;;;;;11.63;10.00;;;;;;;19.27;51.42;101519.56;5057307;28;20244;-65
2021/06/26 03:19:03;;;;;;;10.43;9.57;;;;;;;19.34;51.51;101518.56;5057787;28;20166;-65
2021/06/26 03:21:28;;;;;;;11.73;10.70;;;;;;;19.27;52.04;101523.06;5050822;28;20221;-65
2021/06/26 03:23:54;;;;;;;13.30;11.80;;;;;;;19.38;51.64;101516.75;5050020;28;20625;-65
2021/06/26 03:26:19;;;;;;;13.20;11.90;;;;;;;19.53;51.73;101522.66;5057260;28;20224;-65
2021/06/26 03:28:44;;;;;;;11.20;10.30;;;;;;;19.32;51.37;101522.97;5037307;28;20180;-66
2021/06/26 03:31:10;;;;;;;15.87;14.27;;;;;;;19.47;51.17;101525.41;5037069;28;20253;-65
2021/06/26 03:33:37;;;;;;;18.83;16.80;;;;;;;19.42;51.94;101534.31;5037229;28;20216;-65
2021/06/26 03:36:02;;;;;;;17.93;16.03;;;;;;;19.60;51.74;101528.72;5037062;28;20254;-66
2021/06/26 03:38:28;;;;;;;11.60;10.53;;;;;;;19.79;50.82;101526.66;5037103;28;20418;-65
2021/06/26 03:40:54;;;;;;;11.53;10.50;;;;;;;19.72;51.38;101532.97;5056571;28;20197;-65
2021/06/26 03:43:19;;;;;;;15.77;14.17;;;;;;;19.76;51.42;101529.38;5056859;28;20173;-65
2021/06/26 03:45:44;;;;;;;12.83;11.63;;;;;;;19.64;51.41;101542.78;5059250;28;20434;-66
2021/06/26 03:48:10;;;;;;;12.60;11.40;;;;;;;19.84;51.78;101540.75;5060848;28;20419;-66
2021/06/26 03:50:36;;;;;;;11.50;10.50;;;;;;;20.07;51.40;101542.13;5060421;28;20264;-65
2021/06/26 03:53:02;;;;;;;10.87;9.90;;;;;;;20.17;51.29;101543.72;5060577;28;20173;-65
2021/06/26 03:55:27;;;;;;;10.37;9.40;;;;;;;20.48;50.64;101544.94;5061156;28;20420;-65
2021/06/26 03:57:55;;;;;;;10.70;9.80;;;;;;;20.72;50.20;101548.91;5060653;28;20192;-65
2021/06/26 04:00:21;;;;;;;9.83;9.03;;;;;;;20.31;50.78;101550.53;5060577;28;20181;-66
2021/06/26 04:02:46;;;;;;;12.23;10.87;;;;;;;20.41;50.68;101549.47;5060687;28;20378;-66
2021/06/26 04:05:12;;;;;;;9.83;9.00;;;;;;;20.49;51.18;101546.69;5060353;28;20204;-66
2021/06/26 04:07:37;;;;;;;12.63;11.00;;;;;;;20.21;51.00;101541.88;5060459;28;20165;-66
2021/06/26 04:10:04;;;;;;;10.13;9.23;;;;;;;20.51;51.08;101545.75;5060778;28;20176;-66
2021/06/26 04:12:29;;;;;;;16.00;14.33;;;;;;;20.21;50.38;101541.03;5060197;28;20523;-66
2021/06/26 04:14:54;;;;;;;11.80;10.73;;;;;;;20.29;49.71;101539.09;5060294;28;20391;-66
2021/06/26 04:17:20;;;;;;;15.63;14.23;;;;;;;20.50;49.20;101538.72;5060667;28;20158;-66
2021/06/26 04:19:45;;;;;;;13.60;11.70;;;;;;;20.55;49.25;101541.25;5060294;28;20181;-66
2021/06/26 04:22:12;;;;;;;11.53;10.57;;;;;;;19.64;51.34;101534.88;5059949;28;20279;-66
2021/06/26 04:24:37;;;;;;;11.07;10.17;;;;;;;18.60;54.95;101545.88;5059948;28;20210;-66
2021/06/26 04:27:03;;;;;;;10.70;9.80;;;;;;;18.67;55.25;101548.44;5059820;28;20453;-65
2021/06/26 04:29:28;;;;;;;11.47;10.57;;;;;;;19.18;53.61;101542.53;5060124;28;20279;-65
2021/06/26 04:31:53;;;;;;;12.33;11.20;;;;;;;19.55;53.26;101542.94;5059759;28;20185;-65
2021/06/26 04:34:19;;;;;;;12.20;11.23;;;;;;;20.00;52.07;101545.78;5059785;28;20571;-65
2021/06/26 04:36:46;;;;;;;12.73;11.53;;;;;;;20.15;51.87;101548.16;5060177;28;20174;-65
2021/06/26 04:39:11;;;;;;;12.30;11.30;;;;;;;19.98;52.19;101555.53;5059862;28;20165;-65
2021/06/26 04:41:37;;;;;;;15.80;9.90;;;;;;;19.73;53.56;101557.63;5059807;28;20462;-65
2021/06/26 04:44:03;;;;;;;11.40;10.50;;;;;;;21.05;50.12;101550.91;5059394;28;20181;-65
2021/06/26 04:46:29;;;;;;;11.13;10.23;;;;;;;21.48;48.41;101549.97;5059506;28;20566;-65
2021/06/26 04:48:54;;;;;;;11.23;10.33;;;;;;;22.04;47.18;101555.72;5059658;28;20387;-65
2021/06/26 04:51:19;;;;;;;11.03;10.03;;;;;;;23.66;42.75;101541.41;5060129;28;20177;-65
2021/06/26 04:53:45;;;;;;;10.37;9.57;;;;;;;23.07;43.73;101551.19;5059303;28;20209;-65
2021/06/26 04:56:10;;;;;;;10.60;9.80;;;;;;;24.74;41.09;101540.41;5059123;28;20259;-65
2021/06/26 04:58:35;;;;;;;10.00;9.20;;;;;;;24.04;41.95;101544.63;5059954;28;20166;-65
2021/06/26 05:01:01;;;;;;;10.87;9.97;;;;;;;24.71;40.95;101548.53;5059250;28;20498;-65
2021/06/26 05:03:26;;;;;;;10.60;9.57;;;;;;;26.40;37.14;101534.66;5059209;28;20231;-65
2021/06/26 05:05:52;;;;;;;10.90;9.87;;;;;;;25.63;38.23;101537.91;5059603;28;20205;-66
2021/06/26 05:08:17;;;;;;;10.30;9.40;;;;;;;25.49;38.44;101535.78;5059151;28;20424;-66
2021/06/26 05:10:43;;;;;;;9.17;8.57;;;;;;;25.40;38.38;101547.72;5059075;28;20212;-66
2021/06/26 05:13:08;;;;;;;10.67;9.73;;;;;;;26.17;37.47;101541.88;5059261;28;20169;-66
2021/06/26 05:15:35;;;;;;;10.83;9.93;;;;;;;26.58;36.96;101542.81;5058220;28;20197;-66
2021/06/26 05:18:00;;;;;;;10.40;9.70;;;;;;;27.34;35.23;101551.75;5058866;28;20185;-65
2021/06/26 05:20:25;;;;;;;10.93;10.13;;;;;;;24.10;41.26;101556.84;5059421;28;20408;-65
2021/06/26 05:22:51;;;;;;;9.97;9.20;;;;;;;25.71;38.73;101554.47;5058794;28;20196;-65
2021/06/26 05:25:16;;;;;;;9.33;8.73;;;;;;;25.16;39.80;101558.38;5058543;28;20222;-66
2021/06/26 05:27:42;;;;;;;10.17;9.47;;;;;;;25.99;38.34;101556.88;5059148;28;20169;-66
2021/06/26 05:30:08;;;;;;;10.60;9.80;;;;;;;25.54;39.20;101561.34;5058713;28;20421;-66
2021/06/26 05:32:34;;;;;;;10.73;9.83;;;;;;;25.52;39.73;101565.03;5058417;28;20652;-65
2021/06/26 05:34:59;;;;;;;10.83;9.93;;;;;;;25.61;39.17;101556.63;5059042;28;20442;-65
2021/06/26 05:37:25;;;;;;;10.00;9.30;;;;;;;26.94;36.73;101553.66;5058461;28;20173;-65
2021/06/26 05:39:50;;;;;;;10.43;9.63;;;;;;;27.23;36.77;101554.94;5058612;28;20231;-65
2021/06/26 05:42:15;;;;;;;9.17;8.50;;;;;;;28.32;34.48;101552.31;5052981;28;20181;-67
2021/06/26 05:44:40;;;;;;;9.80;9.10;;;;;;;27.87;34.91;101552.78;5044434;28;20501;-66
2021/06/26 05:47:06;;;;;;;9.93;9.13;;;;;;;29.41;32.45;101553.63;5038368;28;20322;-66
2021/06/26 05:49:31;;;;;;;10.33;9.47;;;;;;;29.11;31.86;101554.38;5058633;28;20181;-65
2021/06/26 05:51:57;;;;;;;10.60;9.70;;;;;;;29.43;31.83;101561.56;5058131;28;20249;-65
2021/06/26 05:54:22;;;;;;;10.03;9.13;;;;;;;27.74;34.28;101567.72;5058065;28;20173;-66
2021/06/26 05:56:47;;;;;;;10.77;9.97;;;;;;;25.55;38.14;101579.13;5058536;28;20158;-65
2021/06/26 05:59:13;;;;;;;10.20;9.40;;;;;;;23.62;42.52;101579.69;5057958;28;20243;-66
2021/06/26 06:01:38;;;;;;;11.43;10.53;;;;;;;23.83;42.75;101576.34;5038110;28;20201;-65
2021/06/26 06:04:06;;;;;;;11.57;10.43;;;;;;;24.41;41.20;101578.00;5038268;28;20213;-65
2021/06/26 06:06:32;;;;;;;12.20;11.20;;;;;;;24.42;40.59;101574.38;5037710;28;20198;-66
2021/06/26 06:08:57;;;;;;;11.97;10.97;;;;;;;25.60;38.87;101576.28;5037399;28;20744;-68
2021/06/26 06:11:22;;;;;;;12.67;11.60;;;;;;;25.97;38.42;101572.09;5038258;28;20539;-66
2021/06/26 06:13:47;;;;;;;11.80;10.60;;;;;;;24.26;39.16;101565.19;5037892;28;20181;-65
2021/06/26 06:16:13;;;;;;;10.23;9.43;;;;;;;23.98;35.54;101569.66;5037930;28;20220;-65
2021/06/26 06:18:38;;;;;;;9.70;8.90;;;;;;;25.72;36.02;101569.56;5038375;28;20216;-65
2021/06/26 06:21:04;;;;;;;9.73;8.93;;;;;;;25.82;35.15;101576.25;5037972;28;20224;-65
2021/06/26 06:23:29;;;;;;;10.40;9.50;;;;;;;25.66;34.29;101577.84;5037820;28;20174;-66
2021/06/26 06:25:55;;;;;;;19.77;18.00;;;;;;;26.34;33.98;101583.91;5038426;28;20289;-66
2021/06/26 06:28:21;;;;;;;17.57;15.90;;;;;;;27.12;31.87;101583.19;5037796;28;20202;-66
2021/06/26 06:30:48;;;;;;;9.50;8.80;;;;;;;26.26;32.34;101593.19;5041071;28;20447;-67
2021/06/26 06:33:13;;;;;;;10.20;9.40;;;;;;;24.97;34.44;101592.88;5047513;28;20247;-66
2021/06/26 06:35:38;;;;;;;10.03;9.20;;;;;;;25.95;32.58;101589.09;5057553;28;20444;-66
2021/06/26 06:38:04;;;;;;;10.50;9.53;;;;;;;27.20;31.18;101589.03;5041254;28;20232;-66
2021/06/26 06:40:29;;;;;;;11.40;10.50;;;;;;;26.87;30.73;101587.84;5037848;28;20178;-64
2021/06/26 06:42:54;;;;;;;9.80;9.07;;;;;;;27.42;31.16;101588.06;5037338;28;20174;-65
2021/06/26 06:45:21;;;;;;;9.67;8.80;;;;;;;28.57;29.52;101587.63;5037289;28;20228;-65
2021/06/26 06:47:46;;;;;;;10.50;9.60;;;;;;;26.40;31.80;101593.47;5037805;28;20166;-66
2021/06/26 06:50:12;;;;;;;9.77;8.97;;;;;;;26.73;32.04;101590.28;5053325;28;20438;-66
2021/06/26 06:52:38;;;;;;;9.47;8.43;;;;;;;27.94;29.37;101584.63;5057190;28;20211;-64
2021/06/26 06:55:07;;;;;;;10.80;9.80;;;;;;;27.55;31.80;101591.88;5057778;28;20588;-66
2021/06/26 06:57:32;;;;;;;9.50;8.60;;;;;;;27.65;31.00;101593.16;5057213;28;20170;-65
2021/06/26 06:59:58;;;;;;;8.70;7.90;;;;;;;26.34;33.93;101605.28;5056962;28;20426;-65
2021/06/26 07:02:23;;;;;;;8.07;7.47;;;;;;;26.43;33.65;101601.38;5057465;28;20252;-66
2021/06/26 07:04:49;;;;;;;11.00;10.00;;;;;;;27.73;30.56;101595.47;5057133;28;20185;-65
2021/06/26 07:07:15;;;;;;;13.13;11.90;;;;;;;28.01;29.76;101599.47;5057098;28;20213;-66
2021/06/26 07:09:40;;;;;;;10.57;9.50;;;;;;;27.37;30.47;101601.66;5057540;28;20601;-66
2021/06/26 07:12:06;;;;;;;9.43;8.73;;;;;;;26.66;31.91;101612.88;5056951;28;20169;-66
2021/06/26 07:14:31;;;;;;;10.50;9.60;;;;;;;29.46;28.87;101599.88;5057159;28;20173;-66
2021/06/26 07:16:57;;;;;;;13.03;9.00;;;;;;;27.92;30.56;101602.59;5057519;28;20235;-66
2021/06/26 07:19:22;;;;;;;11.27;9.93;;;;;;;26.66;32.20;101607.50;5059216;28;20209;-66
2021/06/26 07:21:47;;;;;;;10.77;9.87;;;;;;;26.53;33.76;101607.16;5060977;28;20261;-66
2021/06/26 07:24:13;;;;;;;11.10;10.17;;;;;;;25.97;33.51;101616.66;5060994;28;20229;-67
2021/06/26 07:26:38;;;;;;;11.80;10.60;;;;;;;25.91;33.80;101614.22;5045344;28;20226;-66
2021/06/26 07:29:04;;;;;;;12.10;11.00;;;;;;;25.07;35.50;101614.75;5040897;28;20181;-67
2021/06/26 07:31:30;;;;;;;12.20;11.20;;;;;;;26.22;33.35;101613.84;5040810;28;20170;-64
2021/06/26 07:33:55;;;;;;;11.57;10.57;;;;;;;25.67;34.88;101604.47;5040726;28;20567;-66
2021/06/26 07:36:21;;;;;;;10.70;9.80;;;;;;;25.60;35.92;101610.09;5041110;28;20445;-67
2021/06/26 07:38:46;;;;;;;11.47;10.47;;;;;;;25.11;35.67;101608.38;5040483;28;20174;-67
2021/06/26 07:41:12;;;;;;;12.07;11.03;;;;;;;23.99;37.91;101602.50;5040381;28;20178;-66
2021/06/26 07:43:37;;;;;;;11.30;10.30;;;;;;;24.12;36.72;101605.63;5040704;28;20174;-66
2021/06/26 07:46:03;;;;;;;11.60;10.70;;;;;;;25.07;35.49;101604.06;5040591;28;20209;-66
2021/06/26 07:48:29;;;;;;;11.13;10.03;;;;;;;27.98;31.07;101599.59;5040923;28;20447;-66
2021/06/26 07:50:55;;;;;;;11.07;10.07;;;;;;;28.53;30.52;101593.25;5041091;28;20454;-66
2021/06/26 07:53:21;;;;;;;11.00;10.10;;;;;;;27.01;32.30;101603.28;5040317;28;20212;-66
2021/06/26 07:55:53;;;;;;;10.73;9.83;;;;;;;28.53;30.33;101583.38;5040558;28;20409;-66
2021/06/26 07:58:25;;;;;;;13.60;12.40;;;;;;;29.53;28.41;101593.19;5041143;28;20175;-66
2021/06/26 08:00:52;;;;;;;12.30;11.40;;;;;;;28.38;30.50;101589.56;5040438;28;20421;-66
2021/06/26 08:03:18;;;;;;;14.53;13.17;;;;;;;30.57;27.37;101582.66;5040332;28;20413;-66
2021/06/26 08:05:44;;;;;;;11.57;10.67;;;;;;;30.74;27.81;101588.81;5040902;28;20452;-66
2021/06/26 08:08:09;;;;;;;11.33;10.37;;;;;;;30.29;28.57;101593.34;5040417;28;20515;-67
2021/06/26 08:10:34;;;;;;;12.40;11.33;;;;;;;31.71;27.01;101581.78;5040069;28;20174;-66
2021/06/26 08:13:00;;;;;;;11.60;10.60;;;;;;;31.48;27.24;101577.88;5040499;28;20166;-64
2021/06/26 08:15:25;;;;;;;13.00;11.90;;;;;;;31.09;27.92;101574.13;5040138;28;20468;-67
2021/06/26 08:17:50;;;;;;;12.93;11.83;;;;;;;30.55;28.19;101575.63;5040205;28;20201;-65
2021/06/26 08:20:16;;;;;;;12.10;11.10;;;;;;;29.24;29.67;101582.25;5040516;28;20170;-65
2021/06/26 08:22:57;;;;;;;12.37;11.17;;;;;;;28.21;31.11;101579.69;5040026;28;20193;-66
2021/06/26 08:25:22;;;;;;;11.90;10.90;;;;;;;28.34;30.91;101580.78;5039736;28;20241;-66
2021/06/26 08:27:48;;;;;;;12.90;11.80;;;;;;;28.44;31.13;101577.63;5040138;28;20429;-65
2021/06/26 08:30:13;;;;;;;12.50;11.40;;;;;;;29.60;29.93;101574.91;5039357;28;20174;-66
2021/06/26 08:32:39;;;;;;;12.13;11.10;;;;;;;29.10;29.96;101571.41;5040287;28;20178;-66
2021/06/26 08:35:04;;;;;;;11.93;10.50;;;;;;;28.87;30.47;101578.06;5050706;28;20188;-69
2021/06/26 08:37:30;;;;;;;12.73;11.63;;;;;;;29.33;30.17;101577.34;5059696;28;20178;-69
2021/06/26 08:39:55;;;;;;;12.37;11.20;;;;;;;29.67;29.28;101575.44;5059830;28;20456;-68
2021/06/26 08:42:21;;;;;;;11.67;10.67;;;;;;;29.50;29.76;101569.22;5059327;28;20177;-69
2021/06/26 08:44:48;;;;;;;12.03;11.00;;;;;;;28.94;30.73;101581.28;5058980;28;20403;-69
2021/06/26 08:47:13;;;;;;;11.57;10.57;;;;;;;29.39;30.90;101575.19;5059250;28;20452;-69
2021/06/26 08:49:39;;;;;;;11.40;10.40;;;;;;;29.27;30.46;101572.31;5059514;28;20506;-68
2021/06/26 08:52:04;;;;;;;11.67;10.70;;;;;;;29.72;30.48;101576.88;5059210;28;20192;-67
2021/06/26 08:54:29;;;;;;;11.10;10.30;;;;;;;28.51;31.38;101574.56;5059992;28;20173;-68
2021/06/26 08:56:56;;;;;;;11.73;10.73;;;;;;;28.01;32.19;101580.69;5059398;28;20174;-68
2021/06/26 08:59:21;;;;;;;13.30;12.10;;;;;;;28.42;31.66;101577.72;5059624;28;20578;-68
2021/06/26 09:01:47;;;;;;;13.47;12.47;;;;;;;28.62;31.04;101573.09;5059777;28;20415;-67
2021/06/26 09:04:15;;;;;;;13.07;11.23;;;;;;;28.10;31.54;101582.91;5059431;28;20231;-67
2021/06/26 09:06:55;;;;;;;13.27;12.27;;;;;;;27.94;31.84;101581.94;5059095;28;20205;-67
2021/06/26 09:09:34;;;;;;;12.97;11.87;;;;;;;27.55;32.59;101575.81;5058186;28;20477;-68
2021/06/26 09:12:10;;;;;;;17.03;15.40;;;;;;;28.92;31.27;101576.00;5059031;28;20407;-67
2021/06/26 09:14:37;;;;;;;15.03;13.17;;;;;;;28.31;31.01;101578.28;5059306;28;20411;-69
2021/06/26 09:17:04;;;;;;;13.13;12.03;;;;;;;27.45;32.65;101577.19;5059019;28;20434;-66
2021/06/26 09:19:31;;;;;;;14.00;12.67;;;;;;;28.20;31.31;101578.84;5059030;28;20512;-66
2021/06/26 09:22:02;;;;;;;14.37;13.07;;;;;;;27.52;32.40;101583.97;5058943;28;20424;-66
2021/06/26 09:24:44;;;;;;;14.13;12.77;;;;;;;28.54;31.11;101579.75;5058830;28;20551;-65
2021/06/26 09:27:11;;;;;;;14.17;12.97;;;;;;;28.09;31.82;101585.69;5058444;28;20463;-64
2021/06/26 09:29:47;;;;;;;13.40;12.20;;;;;;;28.07;31.85;101577.72;5058696;28;20738;-64
2021/06/26 09:32:16;;;;;;;14.80;13.60;;;;;;;27.80;32.13;101578.13;5058527;28;20411;-67
2021/06/26 09:34:43;;;;;;;13.77;12.67;;;;;;;27.89;32.46;101580.34;5058541;28;20423;-66
2021/06/26 09:37:17;;;;;;;13.97;12.77;;;;;;;28.71;31.63;101573.53;5058679;28;20503;-66
2021/06/26 09:39:43;;;;;;;14.13;12.80;;;;;;;28.63;31.00;101572.16;5058697;28;20466;-65
2021/06/26 09:42:21;;;;;;;12.53;11.37;;;;;;;28.53;31.64;101572.63;5055936;28;20444;-65
2021/06/26 09:44:57;;;;;;;13.70;12.60;;;;;;;29.39;30.56;101571.66;5046380;28;20515;-65
2021/06/26 09:47:31;;;;;;;18.57;16.70;;;;;;;29.93;29.59;101576.63;5057486;28;20494;-65
2021/06/26 09:50:13;;;;;;;14.90;13.70;;;;;;;30.21;29.05;101580.34;5040437;28;20413;-65
2021/06/26 09:52:42;;;;;;;13.37;12.37;;;;;;;29.58;30.23;101579.53;5037889;28;20706;-65
2021/06/26 09:55:17;;;;;;;11.90;10.63;;;;;;;27.99;32.71;101580.75;5038161;28;20423;-65
2021/06/26 09:57:42;;;;;;;17.13;15.53;;;;;;;29.06;31.02;101578.78;5038268;28;20682;-65
2021/06/26 10:00:08;;;;;;;13.37;12.27;;;;;;;28.37;32.72;101579.75;5039444;28;20417;-64
2021/06/26 10:02:34;;;;;;;15.03;13.60;;;;;;;28.19;32.76;101581.59;5058226;28;20366;-65
2021/06/26 10:04:59;;;;;;;18.47;16.60;;;;;;;28.99;32.23;101581.88;5057829;28;20424;-64
2021/06/26 10:07:25;;;;;;;15.97;13.57;;;;;;;28.08;32.86;101576.78;5056893;28;20578;-65
2021/06/26 10:09:50;;;;;;;12.60;11.40;;;;;;;27.61;34.41;101575.50;5057621;28;20193;-65
2021/06/26 10:12:16;;;;;;;15.30;14.10;;;;;;;28.19;33.26;101585.13;5057788;28;20174;-64
2021/06/26 10:14:41;;;;;;;13.37;12.27;;;;;;;26.84;35.51;101577.28;5057320;28;20220;-64
2021/06/26 10:17:08;;;;;;;15.87;14.53;;;;;;;26.02;36.94;101585.25;5057989;28;20172;-65
2021/06/26 10:19:36;;;;;;;13.43;12.20;;;;;;;26.88;35.77;101588.72;5057865;28;20231;-64
2021/06/26 10:22:01;;;;;;;13.20;12.00;;;;;;;27.14;35.76;101582.13;5057636;28;20855;-62
2021/06/26 10:24:27;;;;;;;14.90;13.50;;;;;;;26.81;36.11;101590.78;5057979;28;20456;-62
2021/06/26 10:26:52;;;;;;;16.87;12.90;;;;;;;27.15;35.01;101577.69;5057269;28;20197;-63
2021/06/26 10:29:30;;;;;;;13.83;12.60;;;;;;;27.35;35.06;101582.09;5057266;28;20547;-63
2021/06/26 10:31:55;;;;;;;11.87;10.77;;;;;;;28.21;33.99;101579.69;5057732;28;20180;-63
2021/06/26 10:34:25;;;;;;;11.60;10.60;;;;;;;28.51;33.52;101570.97;5056848;28;20430;-63
2021/06/26 10:36:52;;;;;;;12.83;11.80;;;;;;;28.40;33.65;101571.56;5057663;28;20173;-63
2021/06/26 10:39:21;;;;;;;12.27;11.23;;;;;;;27.95;34.01;101565.78;5057724;28;20422;-63
2021/06/26 10:42:01;;;;;;;13.47;12.10;;;;;;;28.02;34.72;101574.41;5058033;28;20412;-63
2021/06/26 10:44:38;;;;;;;12.20;11.10;;;;;;;28.18;34.18;101569.97;5037795;28;20474;-62
2021/06/26 10:47:03;;;;;;;11.20;10.00;;;;;;;27.55;34.96;101573.13;5037528;28;20801;-64
2021/06/26 10:49:29;;;;;;;12.53;10.90;;;;;;;27.25;36.05;101572.75;5037579;28;20425;-63
2021/06/26 10:52:06;;;;;;;11.70;10.70;;;;;;;27.59;35.72;101566.69;5037629;28;20533;-63
2021/06/26 10:54:31;;;;;;;11.43;10.20;;;;;;;27.68;35.08;101565.34;5040219;28;20420;-63
2021/06/26 10:57:05;;;;;;;11.50;10.50;;;;;;;27.40;36.17;101566.72;5041948;28;20425;-63
2021/06/26 10:59:31;;;;;;;10.77;9.97;;;;;;;27.34;36.44;101569.63;5041232;28;20244;-63
2021/06/26 11:01:57;;;;;;;13.00;11.90;;;;;;;27.87;35.26;101568.88;5041616;28;20417;-63
2021/06/26 11:04:23;;;;;;;11.13;10.13;;;;;;;27.90;34.71;101565.13;5041638;28;20503;-63
2021/06/26 11:06:52;;;;;;;11.10;10.10;;;;;;;27.63;35.77;101570.06;5041413;28;20539;-62
2021/06/26 11:09:19;;;;;;;11.20;10.13;;;;;;;27.99;34.96;101572.72;5041060;28;20412;-63
2021/06/26 11:11:46;;;;;;;9.83;8.93;;;;;;;27.83;35.00;101571.75;5041427;28;20421;-63